• Join FlightAware (Why Join?)
  • Login
  • US Flag 
11:51PM EST


 

Airport Tracker/Info


-or-


 

Live Flight TrackerFlight Track Log ✈ UAL994 ✈ 05-Jul-2013 ✈ KBOS - KSFO

Flight Track Log - Related Links

Times and Time Zones

All times are in EDT time to prevent confusion due to time zone crossing. See the UAL994 flight status page for this flight to view local times or setup timezone preferences in your user account.

Time Position Orientation Groundspeed Altitude Reporting Facility
EDT Latitude Longitude Course Direction KTS MPH feet Rate Location/Type
11:18AM 42.3500 -71.0167 289° West 190 219 500  Level KA90
11:19AM 42.3167 -70.9333 118° Southeast 253 291 2,900 2,165 Climbing KA90
11:20AM 42.5830 -70.8452 308° West  Level FlightAware Approximate
11:20AM 42.3333 -70.8333 77° East 282 325 5,300  Level KA90
11:21AM 42.6501 -70.9735 300° West  Level FlightAware Approximate
11:21AM 42.3667 -70.7333 66° East 303 349 8,100  Level KA90
11:22AM 42.7073 -71.1109 300° West  Level FlightAware Approximate
11:22AM 42.4333 -70.7167 10° North 303 349 10,300  Level KA90
11:23AM 42.7622 -71.2489 289° West  Level FlightAware Approximate
11:23AM 42.5150 -70.7586 339° North 393 452 11,700  Level Boston Center
11:24AM 42.5683 -70.8417 311° West 345 397 13,300 2,000 Climbing Boston Center
11:25AM 42.6264 -70.9586 304° West 333 383 15,700 2,150 Climbing Boston Center
11:26AM 42.6756 -71.0592 304° West 349 402 17,600 1,800 Climbing Boston Center
11:27AM 42.7394 -71.1878 304° West 359 413 19,300 1,700 Climbing Boston Center
11:28AM 42.7867 -71.3114 298° West 365 420 21,000 1,409 Climbing Boston Center
11:29AM 42.8025 -71.4497 279° West 365 420 22,400 1,455 Climbing Boston Center
11:30AM 42.8206 -71.6219 278° West 376 433 24,200 1,545 Climbing Boston Center
11:31AM 42.8383 -71.7944 278° West 387 445 25,800 1,273 Climbing Boston Center
11:32AM 42.8558 -71.9444 279° West 398 458 27,000 1,150 Climbing Boston Center
11:33AM 42.8708 -72.0972 278° West 408 470 28,100 1,100 Climbing Boston Center
11:34AM 42.8881 -72.2558 278° West 413 475 29,200 950 Climbing Boston Center
11:35AM 42.9089 -72.4175 280° West 423 487 30,000 850 Climbing Boston Center
11:36AM 42.9256 -72.5847 278° West 434 499 30,900 1,100 Climbing Boston Center
11:37AM 42.9336 -72.7492 274° West 442 509 32,200 1,000 Climbing Boston Center
11:38AM 42.9497 -72.8967 279° West 447 514 32,900 800 Climbing Boston Center
11:39AM 42.9717 -73.0700 280° West 447 514 33,800 950 Climbing Boston Center
11:40AM 42.9853 -73.2347 277° West 452 520 34,800 1,050 Climbing Boston Center
11:41AM 42.9964 -73.4139 275° West 447 514 35,900 600 Climbing Boston Center
11:42AM 43.0075 -73.5758 275° West 436 502 36,000 50 Climbing Boston Center
11:43AM 43.0167 -73.7039 276° West 436 502 36,000  Level Boston Center
11:44AM 43.0292 -73.8772 276° West 426 490 36,000  Level Boston Center
11:45AM 43.0414 -74.0453 276° West 426 490 36,000  Level Boston Center
11:46AM 43.0514 -74.2103 275° West 426 490 36,000  Level Boston Center
11:47AM 43.0614 -74.3781 275° West 431 496 36,000  Level Boston Center
11:48AM 43.0708 -74.5461 274° West 442 509 36,000 -50 Level Boston Center
11:49AM 43.0800 -74.7114 274° West 442 509 35,900  Descending Boston Center
11:50AM 43.0914 -74.8739 276° West 442 509 36,000 50 Climbing Boston Center
11:51AM 43.1003 -75.0419 274° West 442 509 36,000  Level Boston Center
11:52AM 43.1067 -75.2044 273° West 442 509 36,000  Level Boston Center
11:53AM 43.1139 -75.3414 274° West 442 509 36,000  Level Boston Center
11:54AM 43.1253 -75.5353 275° West 442 509 36,000 -50 Level Boston Center
11:55AM 43.1333 -75.6981 274° West 442 509 35,900  Descending Boston Center
11:56AM 43.1411 -75.8578 274° West 442 509 36,000 39 Climbing Boston Center
11:58AM 43.1333 -76.0833 267° West 430 495 36,000  Level Toronto Center
11:59AM 43.1500 -76.2500 278° West 430 495 36,000  Level Toronto Center
12:00PM 43.1500 -76.4167 270° West 420 483 36,000  Level Toronto Center
12:01PM 43.1167 -76.5667 253° West 420 483 36,000  Level Toronto Center
12:02PM 43.1167 -76.7333 270° West 420 483 36,000  Level Toronto Center
12:03PM 43.1000 -76.9000 262° West 420 483 36,000  Level Toronto Center
12:04PM 43.0833 -77.0500 261° West 420 483 36,000  Level Toronto Center
12:05PM 43.0667 -77.2167 262° West 420 483 36,000  Level Toronto Center
12:06PM 43.0667 -77.3500 270° West 420 483 36,000  Level Toronto Center
12:07PM 43.0667 -77.5333 270° West 420 483 36,000  Level Toronto Center
12:08PM 43.0667 -77.7000 270° West 420 483 36,000  Level Toronto Center
12:09PM 43.0667 -77.8500 270° West 430 495 36,000  Level Toronto Center
12:10PM 43.0833 -78.0167 278° West 430 495 36,000  Level Toronto Center
12:11PM 43.0833 -78.1667 270° West 420 483 36,000  Level Toronto Center
12:12PM 43.1000 -78.3333 278° West 430 495 36,000  Level Toronto Center
12:13PM 43.1000 -78.4833 270° West 420 483 36,000  Level Toronto Center
12:14PM 43.1167 -78.6500 278° West 420 483 36,000  Level Toronto Center
12:15PM 43.1333 -78.8167 278° West 420 483 36,000  Level Toronto Center
12:16PM 43.1333 -78.9667 270° West 420 483 36,000  Level Toronto Center
12:17PM 43.1333 -79.1333 270° West 420 483 36,000  Level Toronto Center
12:18PM 43.1500 -79.2833 279° West 420 483 36,000  Level Toronto Center
12:19PM 43.1500 -79.4500 270° West 430 495 36,000  Level Toronto Center
12:20PM 43.1667 -79.6167 278° West 420 483 36,000  Level Toronto Center
12:21PM 43.1667 -79.7667 270° West 420 483 36,000  Level Toronto Center
12:22PM 43.1667 -79.9500 270° West 420 483 36,000  Level Toronto Center
12:23PM 43.1833 -80.0833 280° West 430 495 36,000  Level Toronto Center
12:24PM 43.1833 -80.2500 270° West 430 495 36,000  Level Toronto Center
12:25PM 43.2000 -80.4333 277° West 430 495 36,000  Level Toronto Center
12:26PM 43.2000 -80.5667 270° West 430 495 36,000  Level Toronto Center
12:27PM 43.2000 -80.7500 270° West 420 483 36,000  Level Toronto Center
12:28PM 43.2000 -80.9167 270° West 420 483 36,000  Level Toronto Center
12:29PM 43.2000 -81.0667 270° West 420 483 36,000  Level Toronto Center
12:30PM 43.2167 -81.2333 278° West 420 483 36,000  Level Toronto Center
12:31PM 43.2167 -81.4000 270° West 420 483 36,000  Level Toronto Center
12:32PM 43.2167 -81.5500 270° West 420 483 36,000  Level Toronto Center
12:33PM 43.2333 -81.7167 278° West 420 483 36,000  Level Toronto Center
12:34PM 43.2333 -81.8833 270° West 420 483 36,000  Level Toronto Center
12:35PM 43.2333 -82.0333 270° West 420 483 36,000  Level Toronto Center
12:36PM 43.2333 -82.2000 270° West 420 483 36,000  Level Toronto Center
12:37PM 43.2333 -82.3333 270° West 420 483 36,000  Level Toronto Center
12:38PM 43.2500 -82.5167 277° West 420 483 36,000  Level Toronto Center
12:38PM 43.2544 -82.6469 273° West 423 487 36,000  Level Cleveland Center
12:39PM 43.2558 -82.8039 271° West 423 487 36,000  Level Cleveland Center
12:40PM 43.2547 -82.9633 270° West 423 487 36,000  Level Cleveland Center
12:41PM 43.2533 -83.1228 269° West 423 487 36,000  Level Cleveland Center
12:42PM 43.2519 -83.2825 269° West 423 487 36,000  Level Cleveland Center
12:43PM 43.2522 -83.4364 270° West 417 480 36,000  Level Cleveland Center
12:44PM 43.2503 -83.5961 269° West 417 480 36,000  Level Cleveland Center
12:45PM 43.2506 -83.7442 270° West 428 493 36,000  Level Cleveland Center
12:46PM 43.2461 -83.9008 268° West 423 487 36,000  Level Cleveland Center
12:47PM 43.2431 -84.0775 269° West 418 481 36,000  Level Cleveland Center
12:49PM 43.2408 -84.3267 269° West 418 481 36,000  Level Chicago Center
12:50PM 43.2394 -84.4872 269° West 421 484 36,000  Level Chicago Center
12:51PM 43.2364 -84.6775 269° West 418 481 36,000  Level Chicago Center
12:52PM 43.2333 -84.8350 269° West 416 479 36,000  Level Chicago Center
12:53PM 43.2300 -84.9928 268° West 416 479 36,000  Level Chicago Center
12:54PM 43.2281 -85.1508 269° West 416 479 36,000  Level Chicago Center
12:55PM 43.2247 -85.3069 268° West 414 476 36,000  Level Chicago Center
12:56PM 43.2214 -85.4639 268° West 414 476 36,000  Level Chicago Center
12:57PM 43.2167 -85.6489 268° West 409 471 36,000  Level Chicago Center
12:58PM 43.2125 -85.8036 268° West 410 472 36,000  Level Chicago Center
12:59PM 43.2097 -85.9561 269° West 410 472 36,000  Level Chicago Center
01:01PM 43.2047 -86.1094 267° West 412 474 36,000  Level Chicago Center
01:02PM 43.1986 -86.2936 267° West 408 470 36,000  Level Chicago Center
01:03PM 43.1928 -86.4481 267° West 409 471 36,000  Level Chicago Center
01:04PM 43.1878 -86.6028 268° West 409 471 36,000  Level Chicago Center
01:05PM 43.1822 -86.7597 267° West 414 476 36,000  Level Chicago Center
01:06PM 43.1761 -86.9144 267° West 411 473 36,000  Level Chicago Center
01:07PM 43.1711 -87.0686 268° West 410 472 36,000  Level Chicago Center
01:08PM 43.1628 -87.2547 267° West 409 471 36,000  Level Chicago Center
01:09PM 43.1561 -87.4050 267° West 404 465 36,000  Level Chicago Center
01:10PM 43.1494 -87.5606 267° West 408 470 36,000  Level Chicago Center
01:11PM 43.1428 -87.7175 267° West 413 475 36,000  Level Chicago Center
01:12PM 43.1347 -87.8736 266° West 409 471 36,000  Level Chicago Center
01:13PM 43.1261 -88.0608 266° West 416 479 36,000  Level Chicago Center
01:14PM 43.1178 -88.2214 266° West 419 482 36,000  Level Chicago Center
01:15PM 43.1097 -88.3867 266° West 429 494 36,000  Level Chicago Center
01:16PM 43.0997 -88.5514 265° West 429 494 36,000  Level Chicago Center
01:17PM 43.0900 -88.7167 265° West 433 498 36,000  Level Chicago Center
01:18PM 43.0803 -88.8817 265° West 434 499 36,000  Level Chicago Center
01:19PM 43.0703 -89.0469 265° West 434 499 36,000  Level Chicago Center
01:20PM 43.0594 -89.2142 265° West 439 505 36,000  Level Chicago Center
01:21PM 43.0464 -89.4089 265° West 442 509 36,000  Level Chicago Center
01:22PM 43.0347 -89.5764 265° West 443 510 36,000  Level Chicago Center
01:23PM 43.0228 -89.7467 265° West 448 516 36,000  Level Chicago Center
01:24PM 43.0103 -89.9178 264° West 453 521 36,000  Level Chicago Center
01:25PM 42.9958 -90.1022 264° West 456 525 36,000  Level Chicago Center
01:26PM 42.9831 -90.2731 264° West 458 527 36,000  Level Chicago Center
01:27PM 42.9717 -90.4475 265° West 464 534 36,000  Level Chicago Center
01:28PM 42.9581 -90.6206 264° West 464 534 36,000  Level Chicago Center
01:29PM 42.9431 -90.7947 263° West 467 537 36,000  Level Chicago Center
01:30PM 42.9269 -91.0044 264° West 469 540 36,000  Level Chicago Center
01:31PM 42.9136 -91.1792 264° West 469 540 36,000  Level Chicago Center
01:32PM 42.8994 -91.3533 264° West 469 540 36,000  Level Chicago Center
01:34PM 42.8833 -91.5583 264° West 466 536 36,000  Level Chicago Center
01:35PM 42.8642 -91.7611 263° West 467 537 36,000  Level Chicago Center
01:36PM 42.8492 -91.9297 263° West 458 527 36,000  Level Chicago Center
01:37PM 42.8333 -92.0981 263° West 455 524 36,000  Level Chicago Center
01:38PM 42.8175 -92.2683 263° West 456 525 36,000  Level Chicago Center
01:39PM 42.8017 -92.4364 263° West 453 521 36,000  Level Chicago Center
01:40PM 42.7825 -92.6406 263° West 455 524 36,000  Level Minneapolis Center
01:41PM 42.7658 -92.8100 262° West 455 524 36,000  Level Minneapolis Center
01:42PM 42.7456 -93.0144 262° West 458 527 36,000  Level Minneapolis Center
01:43PM 42.7286 -93.1839 262° West 458 527 36,000  Level Minneapolis Center
01:44PM 42.7117 -93.3531 262° West 456 525 36,000  Level Minneapolis Center
01:45PM 42.6936 -93.5239 262° West 460 529 36,000  Level Minneapolis Center
01:46PM 42.6781 -93.6928 263° West 457 526 36,000  Level Minneapolis Center
01:47PM 42.6581 -93.8978 263° West 461 531 36,000  Level Minneapolis Center
01:48PM 42.6389 -94.0656 261° West 457 526 36,000  Level Minneapolis Center
01:49PM 42.6183 -94.2344 261° West 456 525 36,000  Level Minneapolis Center
01:50PM 42.5839 -94.4011 254° West 463 533 36,000  Level Minneapolis Center
01:51PM 42.5358 -94.5639 248° West 468 539 36,000  Level Minneapolis Center
01:52PM 42.4794 -94.7561 248° West 464 534 36,000  Level Minneapolis Center
01:53PM 42.4328 -94.9206 249° West 467 537 36,000  Level Minneapolis Center
01:54PM 42.3856 -95.0847 249° West 468 539 36,000  Level Minneapolis Center
01:55PM 42.3378 -95.2511 249° West 475 547 36,000  Level Minneapolis Center
01:56PM 42.2900 -95.4142 248° West 471 542 36,000  Level Minneapolis Center
01:58PM 42.2331 -95.6094 249° West 469 540 36,000  Level Minneapolis Center
01:59PM 42.1844 -95.7683 248° West 462 532 36,000  Level Minneapolis Center
02:00PM 42.1358 -95.9317 248° West 469 540 36,000  Level Minneapolis Center
02:01PM 42.0886 -96.0925 248° West 467 537 36,000  Level Minneapolis Center
02:02PM 42.0394 -96.2544 248° West 469 540 36,000  Level Minneapolis Center
02:03PM 41.9911 -96.4153 248° West 468 539 36,000  Level Minneapolis Center
02:04PM 41.9314 -96.6058 247° West 466 536 36,000  Level Minneapolis Center
02:05PM 41.8822 -96.7656 248° West 466 536 36,000  Level Minneapolis Center
02:06PM 41.8328 -96.9256 248° West 467 537 36,000  Level Minneapolis Center
02:07PM 41.7825 -97.0844 247° West 466 536 36,000  Level Minneapolis Center
02:08PM 41.7319 -97.2456 247° West 468 539 36,000  Level Minneapolis Center
02:09PM 41.6822 -97.4056 247° West 469 540 36,000  Level Minneapolis Center
02:10PM 41.6197 -97.5975 247° West 469 540 36,000  Level Minneapolis Center
02:11PM 41.5683 -97.7583 247° West 471 542 36,000  Level Minneapolis Center
02:12PM 41.5167 -97.9169 247° West 470 541 36,000  Level Minneapolis Center
02:13PM 41.4656 -98.0753 247° West 467 537 36,000  Level Minneapolis Center
02:14PM 41.4086 -98.2511 247° West 468 539 36,000  Level Minneapolis Center
02:15PM 41.3683 -98.4125 252° West 462 532 36,000  Level Minneapolis Center
02:16PM 41.3511 -98.6011 263° West 468 539 36,000  Level Minneapolis Center
02:17PM 41.3578 -98.7681 273° West 460 529 36,000  Level Minneapolis Center
02:18PM 41.3797 -98.8769 285° West 452 520 36,000  Level Denver Center
02:19PM 41.3972 -99.0389 278° West 449 517 36,000  Level Denver Center
02:20PM 41.4133 -99.2017 278° West 448 516 36,000  Level Denver Center
02:21PM 41.4192 -99.3656 273° West 447 514 36,000  Level Denver Center
02:22PM 41.3975 -99.5658 262° West 456 525 36,000  Level Denver Center
02:23PM 41.3803 -99.7306 262° West 454 522 36,000  Level Denver Center
02:24PM 41.3639 -99.8892 262° West 452 520 36,000  Level Denver Center
02:25PM 41.3453 -100.0736 262° West 452 520 36,000  Level Denver Center
02:26PM 41.3281 -100.2317 262° West 452 520 36,000  Level Denver Center
02:27PM 41.3086 -100.4153 262° West 451 519 36,000  Level Denver Center
02:28PM 41.2908 -100.5719 261° West 452 520 36,000  Level Denver Center
02:29PM 41.2706 -100.7539 262° West 451 519 36,000  Level Denver Center
02:30PM 41.2514 -100.9100 261° West 451 519 36,000  Level Denver Center
02:31PM 41.2303 -101.0897 261° West 447 514 36,000  Level Denver Center
02:32PM 41.2131 -101.2428 262° West 442 509 36,000  Level Denver Center
02:33PM 41.1928 -101.4208 261° West 439 505 36,000  Level Denver Center
02:34PM 41.1742 -101.5736 261° West 440 506 36,000  Level Denver Center
02:35PM 41.1525 -101.7500 261° West 437 503 36,000  Level Denver Center
02:36PM 41.1314 -101.9031 260° West 440 506 36,000  Level Denver Center
02:37PM 41.1139 -102.0561 261° West 440 506 36,000  Level Denver Center
02:38PM 41.0922 -102.2347 261° West 441 507 36,000  Level Denver Center
02:39PM 41.0725 -102.3872 260° West 440 506 36,000 97 Level Denver Center
02:41PM 41.0500 -102.5647 261° West 439 505 36,200 683 Climbing Denver Center
02:42PM 41.0300 -102.7178 260° West 440 506 37,400 878 Climbing Denver Center
02:43PM 41.0081 -102.8928 261° West 434 499 38,000 290 Climbing Denver Center
02:44PM 40.9867 -103.0506 260° West 428 493 38,000  Level Denver Center
02:45PM 40.9672 -103.2011 260° West 432 497 38,000  Level Denver Center
02:46PM 40.9431 -103.3767 260° West 434 499 38,000  Level Denver Center
02:47PM 40.9231 -103.5269 260° West 433 498 38,000  Level Denver Center
02:48PM 40.8992 -103.7006 260° West 430 495 38,000  Level Denver Center
02:49PM 40.8786 -103.8494 260° West 429 494 38,000  Level Denver Center
02:50PM 40.8575 -103.9944 259° West 422 486 38,000  Level Denver Center
02:51PM 40.8331 -104.1642 259° West 420 483 38,000  Level Denver Center
02:52PM 40.8122 -104.3094 259° West 421 484 38,000  Level Denver Center
02:53PM 40.8014 -104.4769 265° West 413 475 38,000  Level Denver Center
02:54PM 40.8122 -104.6211 276° West 412 474 38,000  Level Denver Center
02:55PM 40.8250 -104.7878 276° West 409 471 38,000  Level Denver Center
02:56PM 40.8353 -104.9311 275° West 409 471 38,000  Level Denver Center
02:57PM 40.8439 -105.0742 275° West 408 470 38,000  Level Denver Center
02:58PM 40.8061 -105.2328 253° West 414 476 38,000  Level Denver Center
02:59PM 40.7381 -105.3531 233° Southwest 426 490 38,000  Level Denver Center
03:00PM 40.6872 -105.5111 247° West 417 480 38,000  Level Denver Center
03:02PM 40.6383 -105.8086 258° West 413 475 38,000  Level Denver Center
03:03PM 40.6131 -105.9558 257° West 413 475 38,000  Level Denver Center
03:04PM 40.5883 -106.1028 258° West 412 474 38,000  Level Denver Center
03:05PM 40.5608 -106.2736 258° West 414 476 38,000  Level Denver Center
03:06PM 40.5364 -106.4156 257° West 417 480 38,000  Level Denver Center
03:07PM 40.5078 -106.5772 257° West 418 481 38,000  Level Denver Center
03:08PM 40.4819 -106.7258 257° West 418 481 38,000  Level Denver Center
03:09PM 40.4567 -106.8675 257° West 420 483 38,000  Level Denver Center
03:10PM 40.4264 -107.0336 257° West 420 483 38,000  Level Denver Center
03:11PM 40.4022 -107.1769 258° West 421 484 38,000  Level Denver Center
03:12PM 40.3719 -107.3428 257° West 420 483 38,000  Level Denver Center
03:13PM 40.3458 -107.4842 256° West 418 481 38,000  Level Denver Center
03:15PM 40.3075 -107.6953 257° West 415 478 38,000  Level Denver Center
03:16PM 40.2761 -107.8606 256° West 418 481 38,000  Level Denver Center
03:17PM 40.2500 -108.0000 256° West 416 479 38,000  Level Denver Center
03:18PM 40.2139 -108.1867 256° West 415 478 38,000  Level Denver Center
03:19PM 40.1875 -108.3275 256° West 416 479 38,000  Level Denver Center
03:20PM 40.1697 -108.4197 256° West 414 476 38,000  Level Salt Lake Center
03:21PM 40.1383 -108.5825 256° West 415 478 38,000  Level Salt Lake Center
03:22PM 40.1117 -108.7206 256° West 413 475 38,000  Level Salt Lake Center
03:23PM 40.0800 -108.8831 256° West 416 479 38,000  Level Salt Lake Center
03:24PM 40.0528 -109.0225 256° West 417 480 38,000  Level Salt Lake Center
03:25PM 40.0200 -109.1839 255° West 415 478 38,000  Level Salt Lake Center
03:26PM 39.9925 -109.3225 256° West 414 476 38,000  Level Salt Lake Center
03:27PM 39.9594 -109.4839 255° West 413 475 38,000  Level Salt Lake Center
03:28PM 39.9308 -109.6222 255° West 415 478 38,000  Level Salt Lake Center
03:29PM 39.9033 -109.7608 256° West 414 476 38,000  Level Salt Lake Center
03:30PM 39.8700 -109.9222 255° West 415 478 38,000  Level Salt Lake Center
03:31PM 39.8417 -110.0597 255° West 412 474 38,000  Level Salt Lake Center
03:32PM 39.8083 -110.2206 255° West 412 474 38,000  Level Salt Lake Center
03:33PM 39.7797 -110.3567 255° West 409 471 38,000  Level Salt Lake Center
03:34PM 39.7469 -110.5164 255° West 410 472 38,000  Level Salt Lake Center
03:35PM 39.7169 -110.6542 254° West 413 475 38,000  Level Salt Lake Center
03:36PM 39.6819 -110.8131 254° West 411 473 38,000  Level Salt Lake Center
03:37PM 39.6517 -110.9508 254° West 414 476 38,000  Level Salt Lake Center
03:38PM 39.6222 -111.0881 254° West 413 475 38,000  Level Salt Lake Center
03:39PM 39.5883 -111.2481 255° West 412 474 38,000  Level Salt Lake Center
03:40PM 39.5586 -111.3747 253° West 413 475 38,000  Level Salt Lake Center
03:41PM 39.5200 -111.5467 254° West 415 478 38,000  Level Salt Lake Center
03:43PM 39.4878 -111.6894 254° West 414 476 38,000  Level Salt Lake Center
03:44PM 39.4561 -111.8328 254° West 414 476 38,000  Level Salt Lake Center
03:45PM 39.4239 -111.9756 254° West 415 478 38,000  Level Salt Lake Center
03:46PM 39.3919 -112.1181 254° West 414 476 38,000  Level Salt Lake Center
03:47PM 39.3594 -112.2575 253° West 409 471 38,000  Level Salt Lake Center
03:48PM 39.3294 -112.4003 255° West 412 474 38,000  Level Salt Lake Center
03:49PM 39.2903 -112.5675 253° West 409 471 38,000  Level Salt Lake Center
03:50PM 39.2611 -112.6947 254° West 407 468 38,000  Level Salt Lake Center
03:51PM 39.2292 -112.8339 254° West 407 468 38,000  Level Salt Lake Center
03:52PM 39.1975 -112.9756 254° West 413 475 38,000  Level Salt Lake Center
03:53PM 39.1586 -113.1425 253° West 408 470 38,000  Level Salt Lake Center
03:54PM 39.1269 -113.2808 254° West 406 467 38,000  Level Salt Lake Center
03:55PM 39.0939 -113.4197 253° West 407 468 38,000  Level Salt Lake Center
03:56PM 39.0617 -113.5597 254° West 409 471 38,000  Level Salt Lake Center
03:57PM 39.0292 -113.6981 253° West 406 467 38,000  Level Salt Lake Center
03:58PM 38.9961 -113.8361 253° West 407 468 38,000  Level Salt Lake Center
03:59PM 38.9639 -113.9750 253° West 408 470 38,000  Level Salt Lake Center
04:00PM 38.9231 -114.1422 253° West 410 472 38,000  Level Salt Lake Center
04:01PM 38.8908 -114.2778 253° West 403 464 38,000  Level Salt Lake Center
04:02PM 38.8575 -114.4161 253° West 405 466 38,000  Level Salt Lake Center
04:03PM 38.8236 -114.5544 253° West 408 470 38,000  Level Salt Lake Center
04:04PM 38.7903 -114.6925 253° West 407 468 38,000  Level Salt Lake Center
04:05PM 38.7558 -114.8297 252° West 406 467 38,000  Level Salt Lake Center
04:06PM 38.7214 -114.9675 252° West 408 470 38,000  Level Salt Lake Center
04:07PM 38.6761 -115.1367 251° West 416 479 38,000  Level Salt Lake Center
04:08PM 38.6436 -115.2719 253° West 408 470 38,000  Level Salt Lake Center
04:09PM 38.6097 -115.4103 253° West 402 463 38,000  Level Salt Lake Center
04:10PM 38.5750 -115.5469 252° West 403 464 38,000  Level Salt Lake Center
04:11PM 38.5397 -115.6858 252° West 410 472 38,000  Level Salt Lake Center
04:12PM 38.5044 -115.8222 252° West 407 468 38,000  Level Salt Lake Center
04:13PM 38.4689 -115.9589 252° West 405 466 38,000  Level Salt Lake Center
04:14PM 38.4336 -116.0964 252° West 409 471 38,000  Level Salt Lake Center
04:15PM 38.3897 -116.2617 251° West 410 472 38,000  Level Salt Lake Center
04:16PM 38.3539 -116.4011 252° West 414 476 38,000  Level Salt Lake Center
04:17PM 38.3172 -116.5406 252° West 416 479 38,000  Level Salt Lake Center
04:18PM 38.2800 -116.6803 251° West 418 481 38,000  Level Salt Lake Center
04:19PM 38.2422 -116.8211 251° West 420 483 38,000  Level Salt Lake Center
04:21PM 38.2039 -116.9614 251° West 421 484 38,000  Level Salt Lake Center
04:22PM 38.1658 -117.1014 251° West 421 484 38,000  Level Salt Lake Center
04:23PM 38.1206 -117.2664 251° West 435 501 38,000  Level Salt Lake Center
04:24PM 38.0872 -117.4103 254° West 432 497 38,000  Level Salt Lake Center
04:25PM 38.0303 -117.5367 240° Southwest 425 489 38,000  Level Salt Lake Center
04:26PM 37.9483 -117.6403 225° Southwest 418 481 38,000  Level Salt Lake Center
04:27PM 37.8661 -117.7467 226° Southwest 422 486 38,000  Level Salt Lake Center
04:28PM 37.7681 -117.8744 226° Southwest 422 486 38,000  Level Salt Lake Center
04:29PM 37.7131 -118.0028 242° Southwest 417 480 38,000  Level Salt Lake Center
04:30PM 37.7078 -118.1486 267° West 418 481 38,000  Level Salt Lake Center
04:31PM 37.7042 -118.2994 268° West 427 491 38,000  Level Salt Lake Center
04:32PM 37.7025 -118.4475 269° West 424 488 38,000  Level Salt Lake Center
04:33PM 37.6997 -118.6247 269° West 421 484 38,000  Level Oakland Center
04:34PM 37.6956 -118.7692 268° West 415 478 38,000  Level Oakland Center
04:35PM 37.6922 -118.9203 268° West 418 481 38,000  Level Oakland Center
04:36PM 37.6881 -119.0631 268° West 410 472 38,000  Level Oakland Center
04:37PM 37.6836 -119.2369 268° West 413 475 38,000  Level Oakland Center
04:38PM 37.6797 -119.3844 268° West 418 481 38,000  Level Oakland Center
04:39PM 37.6764 -119.5300 268° West 416 479 38,000 -295 Level Oakland Center
04:40PM 37.6722 -119.6794 268° West 423 487 37,400 -1,426 Descending Oakland Center
04:41PM 37.6681 -119.8278 268° West 424 488 35,100 -2,488 Descending Oakland Center
04:42PM 37.6642 -119.9764 268° West 424 488 32,300 -2,439 Descending Oakland Center
04:43PM 37.6578 -120.1286 267° West 429 494 30,100 -1,279 Descending Oakland Center
04:44PM 37.6531 -120.2783 268° West 428 493 29,700 -984 Descending Oakland Center
04:45PM 37.6453 -120.4303 266° West 431 496 28,100 -1,268 Descending Oakland Center
04:46PM 37.6425 -120.5711 269° West 413 475 27,100 -1,463 Descending Oakland Center
04:47PM 37.6372 -120.7125 267° West 405 466 25,100 -1,525 Descending Oakland Center
04:48PM 37.6314 -120.8778 267° West 394 453 24,000 -973 Descending Oakland Center
04:49PM 37.6167 -120.9833 260° West 397 457 23,300 -1,636 Descending Northern Cal TRACON
04:50PM 37.6000 -121.1333 262° West 395 455 21,000 -3,050 Descending Northern Cal TRACON
04:51PM 37.6000 -121.2667 270° West 399 459 17,200 -3,450 Descending Northern Cal TRACON
04:52PM 37.5833 -121.3833 260° West 391 450 14,100 -2,700 Descending Northern Cal TRACON
04:53PM 37.5667 -121.5167 261° West 371 427 11,800 -1,632 Descending Northern Cal TRACON
04:54PM 37.5500 -121.6333 260° West 345 397 11,000 -421 Descending Northern Cal TRACON
04:55PM 37.5333 -121.7333 258° West 269 310 11,000 -450 Level Northern Cal TRACON
04:56PM 37.4667 -121.7500 191° South 230 265 10,100 -1,050 Descending Northern Cal TRACON
04:57PM 37.4167 -121.7833 208° Southwest 242 278 8,900 -1,050 Descending Northern Cal TRACON
04:58PM 37.4167 -121.8500 270° West 219 252 8,000 -500 Descending Northern Cal TRACON
04:59PM 37.4333 -121.9167 287° West 200 230 7,900 -526 Descending Northern Cal TRACON
05:00PM 37.4500 -121.9833 287° West 199 229 7,000 -1,000 Descending Northern Cal TRACON
05:01PM 37.4833 -122.0333 310° West 195 224 6,000 -900 Descending Northern Cal TRACON
05:02PM 37.5000 -122.0833 293° West 183 211 5,200 -900 Descending Northern Cal TRACON
05:03PM 37.5167 -122.1500 288° West 162 186 4,200 -1,050 Descending Northern Cal TRACON
05:04PM 37.5500 -122.1833 322° Northwest 160 184 3,100 -1,100 Descending Northern Cal TRACON